createdAt,value
2022-12-11T00:06:31.613Z,2.50
2022-12-11T00:08:59.196Z,2.50
2022-12-11T00:11:26.972Z,2.90
2022-12-11T00:13:54.610Z,2.80
2022-12-11T00:16:26.763Z,2.70
2022-12-11T00:18:55.485Z,2.80
2022-12-11T00:21:23.059Z,2.50
2022-12-11T00:26:18.733Z,2.50
2022-12-11T00:31:17.418Z,2.60
2022-12-11T00:33:46.290Z,2.40
2022-12-11T00:36:15.993Z,2.60
2022-12-11T00:41:12.721Z,2.50
2022-12-11T00:43:40.529Z,2.50
2022-12-11T00:46:08.400Z,2.40
2022-12-11T00:51:04.130Z,2.40
2022-12-11T00:53:31.833Z,2.60
2022-12-11T00:55:59.497Z,2.40
2022-12-11T01:00:55.295Z,2.40
2022-12-11T01:05:56.988Z,2.20
2022-12-11T01:08:24.666Z,2.30
2022-12-11T01:11:00.726Z,2.20
2022-12-11T01:13:28.301Z,2.30
2022-12-11T01:15:55.986Z,2.30
2022-12-11T01:18:23.948Z,2.20
2022-12-11T01:20:51.700Z,2.30
2022-12-11T01:25:47.089Z,2.10
2022-12-11T01:28:15.117Z,2.20
2022-12-11T01:30:43.877Z,2.10
2022-12-11T01:33:11.721Z,2.00
2022-12-11T01:35:40.319Z,2.10
2022-12-11T01:38:07.880Z,2.20
2022-12-11T01:40:35.403Z,2.00
2022-12-11T01:43:02.996Z,2.00
2022-12-11T01:45:41.987Z,2.00
2022-12-11T01:48:25.717Z,2.00
2022-12-11T01:51:00.024Z,1.90
2022-12-11T01:53:34.460Z,1.80
2022-12-11T01:56:03.708Z,1.90
2022-12-11T01:58:35.408Z,1.80
2022-12-11T02:01:03.751Z,1.90
2022-12-11T02:03:31.361Z,1.80
2022-12-11T02:06:02.795Z,1.90
2022-12-11T02:08:30.456Z,2.00
2022-12-11T02:11:05.133Z,1.90
2022-12-11T02:13:50.050Z,2.00
2022-12-11T02:16:29.568Z,2.00
2022-12-11T02:19:02.888Z,2.00
2022-12-11T02:21:39.306Z,1.90
2022-12-11T02:24:25.007Z,2.00
2022-12-11T02:27:13.433Z,2.00
2022-12-11T02:30:05.602Z,1.90
2022-12-11T02:32:41.897Z,1.90
2022-12-11T02:35:23.013Z,2.00
2022-12-11T02:37:58.807Z,2.00
2022-12-11T02:40:30.144Z,2.00
2022-12-11T02:43:02.700Z,2.00
2022-12-11T02:45:32.441Z,2.00
2022-12-11T02:48:03.353Z,2.00
2022-12-11T02:50:31.865Z,2.00
2022-12-11T02:53:03.111Z,2.00
2022-12-11T02:55:33.734Z,1.90
2022-12-11T02:58:17.893Z,1.80
2022-12-11T03:00:47.081Z,1.80
2022-12-11T03:05:43.122Z,1.70
2022-12-11T03:08:11.190Z,1.70
2022-12-11T03:10:38.779Z,1.70
2022-12-11T03:13:06.468Z,1.80
2022-12-11T03:16:03.327Z,1.80
2022-12-11T03:18:41.347Z,1.80
2022-12-11T03:21:21.154Z,1.80
2022-12-11T03:24:05.334Z,1.80
2022-12-11T03:26:39.532Z,1.80
2022-12-11T03:29:23.753Z,1.80
2022-12-11T03:32:03.837Z,1.80
2022-12-11T03:34:45.012Z,1.90
2022-12-11T03:37:15.008Z,1.90
2022-12-11T03:39:48.339Z,1.90
2022-12-11T03:42:18.127Z,1.90
2022-12-11T03:44:49.782Z,1.90
2022-12-11T03:47:24.024Z,2.00
2022-12-11T03:49:53.411Z,2.00
2022-12-11T03:52:21.964Z,2.10
2022-12-11T03:54:50.880Z,2.10
2022-12-11T03:57:22.503Z,2.10
2022-12-11T03:59:50.384Z,2.20
2022-12-11T04:02:17.940Z,2.20
2022-12-11T04:04:45.537Z,2.20
2022-12-11T04:09:41.168Z,2.30
2022-12-11T04:12:08.772Z,2.30
2022-12-11T04:14:54.837Z,2.30
2022-12-11T04:17:40.829Z,2.30
2022-12-11T04:20:28.923Z,2.20
2022-12-11T04:23:15.053Z,2.20
2022-12-11T04:25:42.694Z,2.20
2022-12-11T04:30:38.269Z,2.30
2022-12-11T04:33:05.935Z,2.30
2022-12-11T04:35:33.476Z,2.30
2022-12-11T04:40:29.249Z,2.30
2022-12-11T04:42:56.761Z,2.30
2022-12-11T04:45:24.355Z,2.30
2022-12-11T04:47:51.949Z,2.40
2022-12-11T04:50:19.641Z,2.40
2022-12-11T04:52:47.170Z,2.40
2022-12-11T04:55:14.972Z,2.40
2022-12-11T04:57:42.521Z,2.40
2022-12-11T05:00:11.941Z,2.40
2022-12-11T05:02:41.141Z,2.40
2022-12-11T05:05:11.128Z,2.40
2022-12-11T05:07:39.029Z,2.40
2022-12-11T05:10:07.202Z,2.40
2022-12-11T05:12:34.768Z,2.40
2022-12-11T05:15:02.556Z,2.40
2022-12-11T05:17:30.168Z,2.40
2022-12-11T05:22:25.623Z,2.40
2022-12-11T05:24:53.172Z,2.40
2022-12-11T05:27:21.011Z,2.30
2022-12-11T05:29:48.629Z,2.30
2022-12-11T05:32:16.206Z,2.40
2022-12-11T05:34:43.928Z,2.30
2022-12-11T05:37:11.741Z,2.30
2022-12-11T05:39:39.710Z,2.30
2022-12-11T05:42:07.221Z,2.30
2022-12-11T05:47:02.737Z,2.30
2022-12-11T05:49:31.201Z,2.30
2022-12-11T05:51:58.911Z,2.30
2022-12-11T05:54:26.616Z,2.30
2022-12-11T05:59:22.015Z,2.40
2022-12-11T06:01:49.748Z,2.40
2022-12-11T06:04:17.456Z,2.30
2022-12-11T06:06:45.007Z,2.40
2022-12-11T06:09:16.833Z,2.40
2022-12-11T06:11:44.409Z,2.40
2022-12-11T06:14:12.862Z,2.30
2022-12-11T06:16:41.018Z,2.40
2022-12-11T06:19:14.740Z,2.40
2022-12-11T06:21:42.467Z,2.40
2022-12-11T06:24:11.665Z,2.40
2022-12-11T06:26:39.371Z,2.40
2022-12-11T06:29:12.402Z,2.40
2022-12-11T06:31:40.505Z,2.40
2022-12-11T06:34:09.172Z,2.50
2022-12-11T06:36:37.358Z,2.40
2022-12-11T06:39:04.877Z,2.40
2022-12-11T06:41:32.578Z,2.40
2022-12-11T06:44:00.117Z,2.40
2022-12-11T06:46:27.748Z,2.40
2022-12-11T06:48:55.381Z,2.40
2022-12-11T06:51:23.508Z,2.40
2022-12-11T06:53:53.092Z,2.40
2022-12-11T06:56:21.470Z,2.50
2022-12-11T06:58:49.089Z,2.40
2022-12-11T07:01:23.190Z,2.50
2022-12-11T07:03:53.900Z,2.50
2022-12-11T07:06:22.283Z,2.50
2022-12-11T07:08:50.088Z,2.40
2022-12-11T07:11:19.673Z,2.50
2022-12-11T07:13:47.577Z,2.50
2022-12-11T07:16:16.545Z,2.50
2022-12-11T07:18:47.826Z,2.40
2022-12-11T07:21:15.758Z,2.40
2022-12-11T07:26:16.940Z,2.50
2022-12-11T07:28:44.905Z,2.40
2022-12-11T07:31:15.743Z,2.40
2022-12-11T07:33:43.928Z,2.40
2022-12-11T07:36:13.617Z,2.40
2022-12-11T07:38:41.746Z,2.40
2022-12-11T07:41:12.034Z,2.40
2022-12-11T07:43:40.694Z,2.40
2022-12-11T07:46:14.914Z,2.40
2022-12-11T07:48:45.529Z,2.40
2022-12-11T07:53:48.201Z,2.40
2022-12-11T07:56:19.222Z,2.40
2022-12-11T07:58:46.992Z,2.40
2022-12-11T08:01:19.779Z,2.50
2022-12-11T08:03:47.380Z,2.50
2022-12-11T08:06:15.145Z,2.50
2022-12-11T08:08:42.843Z,2.50
2022-12-11T08:11:12.805Z,2.50
2022-12-11T08:13:41.466Z,2.50
2022-12-11T08:16:13.169Z,2.50
2022-12-11T08:18:42.572Z,2.60
2022-12-11T08:21:12.864Z,2.60
2022-12-11T08:23:40.737Z,2.60
2022-12-11T08:26:10.971Z,2.60
2022-12-11T08:28:38.716Z,2.60
2022-12-11T08:31:08.556Z,2.60
2022-12-11T08:33:38.409Z,2.60
2022-12-11T08:36:12.689Z,2.60
2022-12-11T08:38:40.858Z,2.60
2022-12-11T08:41:28.799Z,2.60
2022-12-11T08:43:57.741Z,2.60
2022-12-11T08:46:28.403Z,2.70
2022-12-11T08:48:56.287Z,2.70
2022-12-11T08:51:26.289Z,2.70
2022-12-11T08:54:01.171Z,2.70
2022-12-11T08:56:29.169Z,2.70
2022-12-11T08:58:59.147Z,2.80
2022-12-11T09:01:28.131Z,2.80
2022-12-11T09:03:57.083Z,2.80
2022-12-11T09:06:28.379Z,2.80
2022-12-11T09:08:56.289Z,2.80
2022-12-11T09:11:27.509Z,2.80
2022-12-11T09:13:55.210Z,2.80
2022-12-11T09:16:25.514Z,2.80
2022-12-11T09:18:55.528Z,2.90
2022-12-11T09:21:27.848Z,2.90
2022-12-11T09:24:00.637Z,3.00
2022-12-11T09:26:30.201Z,2.90
2022-12-11T09:28:58.478Z,3.00
2022-12-11T09:31:28.958Z,3.00
2022-12-11T09:34:06.250Z,3.00
2022-12-11T09:36:34.428Z,3.00
2022-12-11T09:39:04.597Z,3.00
2022-12-11T09:41:36.708Z,3.00
2022-12-11T09:44:39.708Z,3.10
2022-12-11T09:47:36.082Z,3.10
2022-12-11T09:50:15.606Z,3.10
2022-12-11T09:53:12.605Z,3.10
2022-12-11T09:55:58.744Z,3.20
2022-12-11T09:58:50.926Z,3.10
2022-12-11T10:01:25.788Z,3.20
2022-12-11T10:04:03.181Z,3.20
2022-12-11T10:06:41.423Z,3.20
2022-12-11T10:09:30.793Z,3.20
2022-12-11T10:12:04.662Z,3.30
2022-12-11T10:14:43.789Z,3.30
2022-12-11T10:17:20.635Z,3.30
2022-12-11T10:19:49.636Z,3.30
2022-12-11T10:22:27.365Z,3.40
2022-12-11T10:25:10.639Z,3.40
2022-12-11T10:27:40.918Z,3.40
2022-12-11T10:30:23.621Z,3.40
2022-12-11T10:33:02.050Z,3.40
2022-12-11T10:35:47.831Z,3.50
2022-12-11T10:38:27.537Z,3.50
2022-12-11T10:40:59.394Z,3.50
2022-12-11T10:43:42.263Z,3.50
2022-12-11T10:46:22.617Z,3.50
2022-12-11T10:48:55.646Z,3.40
2022-12-11T10:51:34.019Z,3.40
2022-12-11T10:54:07.566Z,3.40
2022-12-11T10:56:37.883Z,3.40
2022-12-11T10:59:05.851Z,3.40
2022-12-11T11:01:33.439Z,3.40
2022-12-11T11:04:14.682Z,3.50
2022-12-11T11:06:42.227Z,3.50
2022-12-11T11:09:36.055Z,3.50
2022-12-11T11:12:07.829Z,3.60
2022-12-11T11:14:35.614Z,3.60
2022-12-11T11:17:03.169Z,3.60
2022-12-11T11:19:36.247Z,3.60
2022-12-11T11:22:12.749Z,3.70
2022-12-11T11:24:44.679Z,3.70
2022-12-11T11:27:45.266Z,3.70
2022-12-11T11:30:28.091Z,3.70
2022-12-11T11:33:00.719Z,3.80
2022-12-11T11:35:30.251Z,3.70
2022-12-11T11:38:13.239Z,3.70
2022-12-11T11:40:48.086Z,3.70
2022-12-11T11:43:29.327Z,3.70
2022-12-11T11:48:40.233Z,3.70
2022-12-11T11:51:31.768Z,3.80
2022-12-11T11:54:02.052Z,3.80
2022-12-11T11:56:37.677Z,3.80
2022-12-11T11:59:39.878Z,3.80
2022-12-11T12:02:16.588Z,3.90
2022-12-11T12:04:45.899Z,5.20
2022-12-11T12:07:44.792Z,4.00
2022-12-11T12:10:34.317Z,4.00
2022-12-11T12:16:00.261Z,4.10
2022-12-11T12:18:58.439Z,4.00
2022-12-11T12:21:36.461Z,4.10
2022-12-11T12:24:12.346Z,4.00
2022-12-11T12:27:03.309Z,4.00
2022-12-11T12:29:53.562Z,4.10
2022-12-11T12:32:48.617Z,4.10
2022-12-11T12:35:36.722Z,4.10
2022-12-11T12:38:04.277Z,4.10
2022-12-11T12:41:02.021Z,4.10
2022-12-11T12:43:32.817Z,4.10
2022-12-11T12:46:31.636Z,4.10
2022-12-11T12:49:00.302Z,4.10
2022-12-11T12:51:29.110Z,4.10
2022-12-11T12:54:00.473Z,4.10
2022-12-11T12:56:31.501Z,4.10
2022-12-11T13:01:28.877Z,4.10
2022-12-11T13:04:02.153Z,4.10
2022-12-11T13:06:47.374Z,4.10
2022-12-11T13:09:26.350Z,4.20
2022-12-11T13:11:57.944Z,4.20
2022-12-11T13:14:28.051Z,4.30
2022-12-11T13:17:22.524Z,4.30
2022-12-11T13:19:57.545Z,4.30
2022-12-11T13:24:53.395Z,4.30
2022-12-11T13:27:39.635Z,4.30
2022-12-11T13:30:23.126Z,4.30
2022-12-11T13:33:04.326Z,4.30
2022-12-11T13:35:33.870Z,4.30
2022-12-11T13:40:44.265Z,4.30
2022-12-11T13:43:29.864Z,4.20
2022-12-11T13:46:04.149Z,4.20
2022-12-11T13:48:43.994Z,4.10
2022-12-11T13:51:20.042Z,4.20
2022-12-11T13:53:49.010Z,4.10
2022-12-11T13:56:19.681Z,4.10
2022-12-11T13:58:48.042Z,4.10
2022-12-11T14:01:27.447Z,4.10
2022-12-11T14:03:58.202Z,4.10
2022-12-11T14:06:28.553Z,4.10
2022-12-11T14:08:59.417Z,4.10
2022-12-11T14:11:39.229Z,4.10
2022-12-11T14:14:16.696Z,4.10
2022-12-11T14:16:51.646Z,4.10
2022-12-11T14:19:21.074Z,4.10
2022-12-11T14:22:04.172Z,4.10
2022-12-11T14:24:33.033Z,4.10
2022-12-11T14:29:32.009Z,4.10
2022-12-11T14:32:04.094Z,4.00
2022-12-11T14:34:34.254Z,4.00
2022-12-11T14:37:06.296Z,4.00
2022-12-11T14:39:50.350Z,4.00
2022-12-11T14:42:22.135Z,4.00
2022-12-11T14:44:54.840Z,3.00
2022-12-11T14:47:29.125Z,4.00
2022-12-11T14:50:06.004Z,4.00
2022-12-11T14:52:40.194Z,4.00
2022-12-11T14:55:18.432Z,4.00
2022-12-11T14:57:49.976Z,4.00
2022-12-11T15:00:27.069Z,4.00
2022-12-11T15:03:02.374Z,3.90
2022-12-11T15:05:34.464Z,3.90
2022-12-11T15:08:10.678Z,4.10
2022-12-11T15:10:43.092Z,3.90
2022-12-11T15:13:10.886Z,3.90
2022-12-11T15:15:47.817Z,3.90
2022-12-11T15:18:29.977Z,3.90
2022-12-11T15:21:01.334Z,3.90
2022-12-11T15:23:30.012Z,3.90
2022-12-11T15:26:00.018Z,3.90
2022-12-11T15:28:36.493Z,3.90
2022-12-11T15:31:25.754Z,3.90
2022-12-11T15:33:53.783Z,3.90
2022-12-11T15:36:32.305Z,3.80
2022-12-11T15:39:00.180Z,3.80
2022-12-11T15:41:33.136Z,3.80
2022-12-11T15:44:03.664Z,3.70
2022-12-11T15:46:36.454Z,3.70
2022-12-11T15:49:12.543Z,3.70
2022-12-11T15:51:43.076Z,3.60
2022-12-11T15:54:11.109Z,3.40
2022-12-11T15:56:39.956Z,3.50
2022-12-11T15:59:07.592Z,3.50
2022-12-11T16:01:35.218Z,3.50
2022-12-11T16:04:05.113Z,3.40
2022-12-11T16:06:33.603Z,3.50
2022-12-11T16:09:03.390Z,3.40
2022-12-11T16:11:31.802Z,3.40
2022-12-11T16:14:03.410Z,3.40
2022-12-11T16:16:31.884Z,3.40
2022-12-11T16:19:00.835Z,3.30
2022-12-11T16:21:28.426Z,3.40
2022-12-11T16:23:55.924Z,3.30
2022-12-11T16:26:40.204Z,3.30
2022-12-11T16:29:08.662Z,3.30
2022-12-11T16:31:36.169Z,3.30
2022-12-11T16:34:03.760Z,3.30
2022-12-11T16:36:31.428Z,3.20
2022-12-11T16:38:59.036Z,3.30
2022-12-11T16:41:26.644Z,3.20
2022-12-11T16:43:54.715Z,3.20
2022-12-11T16:46:24.940Z,3.20
2022-12-11T16:48:52.577Z,3.20
2022-12-11T16:51:20.084Z,3.20
2022-12-11T16:53:47.699Z,3.20
2022-12-11T16:56:15.343Z,3.20
2022-12-11T16:58:42.989Z,3.20
2022-12-11T17:01:15.308Z,3.20
2022-12-11T17:03:43.857Z,3.20
2022-12-11T17:06:14.635Z,3.20
2022-12-11T17:08:42.773Z,3.20
2022-12-11T17:11:13.516Z,3.20
2022-12-11T17:13:41.245Z,3.20
2022-12-11T17:16:11.886Z,3.20
2022-12-11T17:18:40.148Z,3.20
2022-12-11T17:21:09.715Z,3.10
2022-12-11T17:23:37.506Z,3.10
2022-12-11T17:26:06.079Z,3.10
2022-12-11T17:28:33.704Z,3.10
2022-12-11T17:31:05.180Z,3.10
2022-12-11T17:33:33.019Z,3.10
2022-12-11T17:36:01.564Z,3.10
2022-12-11T17:38:29.208Z,3.10
2022-12-11T17:40:56.957Z,3.10
2022-12-11T17:43:24.723Z,3.20
2022-12-11T17:45:52.987Z,3.20
2022-12-11T17:48:22.801Z,3.20
2022-12-11T17:50:52.136Z,3.20
2022-12-11T17:53:21.222Z,3.20
2022-12-11T17:55:51.703Z,3.10
2022-12-11T17:58:22.231Z,3.10
2022-12-11T18:00:53.191Z,3.10
2022-12-11T18:03:21.399Z,3.10
2022-12-11T18:05:51.182Z,3.10
2022-12-11T18:08:26.182Z,3.10
2022-12-11T18:10:54.491Z,2.90
2022-12-11T18:13:24.785Z,3.10
2022-12-11T18:16:04.433Z,3.00
2022-12-11T18:18:32.281Z,3.00
2022-12-11T18:20:59.934Z,3.00
2022-12-11T18:23:27.784Z,3.00
2022-12-11T18:25:55.437Z,3.00
2022-12-11T18:28:23.348Z,3.00
2022-12-11T18:30:50.932Z,2.90
2022-12-11T18:33:18.765Z,2.90
2022-12-11T18:35:48.941Z,2.90
2022-12-11T18:38:16.542Z,2.90
2022-12-11T18:40:44.172Z,2.80
2022-12-11T18:43:11.856Z,2.90
2022-12-11T18:45:41.557Z,2.80
2022-12-11T18:48:09.866Z,2.80
2022-12-11T18:50:37.827Z,2.80
2022-12-11T18:53:05.513Z,2.80
2022-12-11T18:55:33.056Z,2.80
2022-12-11T18:58:00.667Z,2.70
2022-12-11T19:00:28.186Z,2.70
2022-12-11T19:02:55.852Z,2.70
2022-12-11T19:05:23.414Z,2.50
2022-12-11T19:07:51.146Z,2.60
2022-12-11T19:10:18.742Z,2.60
2022-12-11T19:12:46.452Z,2.60
2022-12-11T19:15:17.454Z,2.60
2022-12-11T19:17:48.522Z,2.50
2022-12-11T19:20:47.355Z,2.50
2022-12-11T19:23:04.883Z,2.40
2022-12-11T19:25:32.739Z,2.40
2022-12-11T19:28:00.499Z,2.20
2022-12-11T19:30:28.254Z,2.30
2022-12-11T19:32:55.795Z,2.40
2022-12-11T19:35:23.400Z,2.30
2022-12-11T19:37:51.023Z,2.30
2022-12-11T19:40:19.501Z,2.30
2022-12-11T19:42:47.106Z,2.30
2022-12-11T19:45:14.881Z,2.30
2022-12-11T19:47:42.583Z,2.40
2022-12-11T19:50:10.469Z,2.40
2022-12-11T19:52:45.814Z,2.40
2022-12-11T19:55:15.163Z,2.50
2022-12-11T19:57:42.888Z,2.40
2022-12-11T20:00:10.987Z,2.40
2022-12-11T20:02:41.424Z,2.40
2022-12-11T20:05:09.829Z,2.40
2022-12-11T20:07:38.726Z,2.30
2022-12-11T20:10:07.461Z,2.40
2022-12-11T20:12:35.162Z,2.40
2022-12-11T20:15:06.773Z,2.40
2022-12-11T20:17:34.482Z,2.20
2022-12-11T20:20:02.234Z,2.20
2022-12-11T20:24:57.800Z,2.10
2022-12-11T20:27:26.182Z,2.20
2022-12-11T20:29:53.687Z,2.20
2022-12-11T20:32:21.351Z,2.30
2022-12-11T20:34:49.021Z,2.10
2022-12-11T20:37:17.059Z,2.10
2022-12-11T20:39:45.790Z,2.10
2022-12-11T20:42:13.312Z,2.20
2022-12-11T20:44:47.274Z,1.90
2022-12-11T20:47:19.813Z,1.90
2022-12-11T20:49:49.502Z,2.00
2022-12-11T20:52:18.259Z,1.80
2022-12-11T20:54:46.044Z,1.80
2022-12-11T20:57:16.269Z,1.80
2022-12-11T20:59:45.250Z,1.70
2022-12-11T21:02:13.492Z,1.60
2022-12-11T21:04:41.630Z,1.70
2022-12-11T21:07:10.301Z,1.60
2022-12-11T21:09:39.246Z,1.50
2022-12-11T21:12:07.289Z,1.30
2022-12-11T21:17:04.781Z,1.50
2022-12-11T21:19:32.801Z,1.10
2022-12-11T21:22:00.510Z,1.10
2022-12-11T21:24:29.748Z,1.00
2022-12-11T21:26:59.080Z,0.90
2022-12-11T21:29:29.454Z,0.90
2022-12-11T21:31:57.823Z,0.70
2022-12-11T21:34:25.963Z,0.70
2022-12-11T21:36:57.063Z,0.60
2022-12-11T21:39:26.538Z,0.70
2022-12-11T21:41:54.447Z,0.60
2022-12-11T21:47:09.780Z,0.50
2022-12-11T21:49:37.462Z,0.30
2022-12-11T21:52:05.245Z,0.30
2022-12-11T21:54:32.761Z,0.40
2022-12-11T21:57:00.291Z,0.40
2022-12-11T21:59:28.677Z,0.50
2022-12-11T22:01:56.673Z,0.40
2022-12-11T22:04:24.308Z,0.60
2022-12-11T22:06:51.888Z,0.30
2022-12-11T22:09:19.443Z,0.10
2022-12-11T22:11:47.536Z,0.30
2022-12-11T22:14:16.795Z,-0.10
2022-12-11T22:16:45.017Z,0.30
2022-12-11T22:19:13.022Z,0.20
2022-12-11T22:21:40.838Z,0.10
2022-12-11T22:24:08.723Z,0.10
2022-12-11T22:26:36.382Z,-0.10
2022-12-11T22:29:03.989Z,0.00
2022-12-11T22:31:31.690Z,-0.10
2022-12-11T22:33:59.244Z,-0.10
2022-12-11T22:36:27.461Z,-0.10
2022-12-11T22:38:55.316Z,0.00
2022-12-11T22:41:26.279Z,-0.20
2022-12-11T22:43:54.951Z,-0.20
2022-12-11T22:46:25.318Z,-0.20
2022-12-11T22:48:53.000Z,-0.30
2022-12-11T22:53:48.621Z,-0.10
2022-12-11T22:56:16.396Z,-0.30
2022-12-11T22:58:44.141Z,-0.30
2022-12-11T23:01:16.205Z,-0.30
2022-12-11T23:06:15.819Z,-0.30
2022-12-11T23:08:44.261Z,-0.30
2022-12-11T23:11:18.181Z,-0.70
2022-12-11T23:13:45.865Z,-0.40
2022-12-11T23:16:14.025Z,-0.60
2022-12-11T23:18:42.162Z,-0.40
2022-12-11T23:21:10.701Z,-0.60
2022-12-11T23:23:38.603Z,-0.60
2022-12-11T23:26:08.254Z,-0.10
2022-12-11T23:31:04.222Z,-0.10
2022-12-11T23:33:32.134Z,-0.30
2022-12-11T23:35:59.911Z,-0.20
2022-12-11T23:38:27.618Z,-0.10
2022-12-11T23:40:55.756Z,-0.10
2022-12-11T23:43:24.089Z,0.10
2022-12-11T23:45:51.737Z,0.10
2022-12-11T23:48:19.507Z,0.10
2022-12-11T23:50:47.209Z,0.00
2022-12-11T23:53:14.827Z,0.30
2022-12-11T23:55:44.469Z,0.30
2022-12-11T23:58:12.726Z,0.40
